sensor_id;sensor_type;location;lat;lon;timestamp;pressure;altitude;pressure_sealevel;temperature;humidity
73105;BME280;61296;50.526;30.792;2022-10-17T00:14:00;101139.09;;;4.27;73.38
73105;BME280;61296;50.526;30.792;2022-10-17T00:29:20;101056.22;;;3.34;75.31
73105;BME280;61296;50.526;30.792;2022-10-17T01:00:02;101113.53;;;3.61;76.02
73105;BME280;61296;50.526;30.792;2022-10-17T01:31:17;101079.16;;;3.23;76.67
73105;BME280;61296;50.526;30.792;2022-10-17T01:46:45;101027.22;;;3.00;76.65
73105;BME280;61296;50.526;30.792;2022-10-17T02:02:08;101028.19;;;3.09;76.13
73105;BME280;61296;50.526;30.792;2022-10-17T02:33:18;100984.19;;;2.83;76.27
73105;BME280;61296;50.526;30.792;2022-10-17T02:48:43;101018.94;;;2.86;76.91
73105;BME280;61296;50.526;30.792;2022-10-17T03:04:11;101003.88;;;2.70;77.23
73105;BME280;61296;50.526;30.792;2022-10-17T03:19:31;101073.78;;;2.94;77.29
73105;BME280;61296;50.526;30.792;2022-10-17T03:34:53;101081.16;;;2.88;77.85
73105;BME280;61296;50.526;30.792;2022-10-17T03:50:13;101106.81;;;3.06;77.34
73105;BME280;61296;50.526;30.792;2022-10-17T04:05:34;101144.47;;;3.17;77.94
73105;BME280;61296;50.526;30.792;2022-10-17T04:20:54;101190.22;;;3.39;78.28
73105;BME280;61296;50.526;30.792;2022-10-17T04:36:16;101129.69;;;3.00;78.37
73105;BME280;61296;50.526;30.792;2022-10-17T04:51:37;101072.91;;;2.98;77.53
73105;BME280;61296;50.526;30.792;2022-10-17T05:07:23;101083.31;;;3.63;75.68
73105;BME280;61296;50.526;30.792;2022-10-17T05:22:54;101208.31;;;5.01;71.74
73105;BME280;61296;50.526;30.792;2022-10-17T05:38:14;101150.94;;;4.74;72.49
73105;BME280;61296;50.526;30.792;2022-10-17T05:53:39;101174.72;;;5.93;68.64
73105;BME280;61296;50.526;30.792;2022-10-17T06:09:03;101122.75;;;6.34;65.61
73105;BME280;61296;50.526;30.792;2022-10-17T06:24:26;101166.66;;;6.74;64.32
73105;BME280;61296;50.526;30.792;2022-10-17T06:39:46;101112.72;;;7.11;62.45
73105;BME280;61296;50.526;30.792;2022-10-17T06:55:10;101130.44;;;7.93;60.24
73105;BME280;61296;50.526;30.792;2022-10-17T07:10:40;101168.28;;;8.74;58.26
73105;BME280;61296;50.526;30.792;2022-10-17T07:26:04;101210.19;;;9.26;55.60
73105;BME280;61296;50.526;30.792;2022-10-17T07:41:28;101177.19;;;9.52;54.02
73105;BME280;61296;50.526;30.792;2022-10-17T07:56:47;101198.00;;;10.38;52.30
73105;BME280;61296;50.526;30.792;2022-10-17T08:12:09;101118.59;;;10.07;51.59
73105;BME280;61296;50.526;30.792;2022-10-17T08:27:29;101150.84;;;10.69;50.38
73105;BME280;61296;50.526;30.792;2022-10-17T08:43:17;101219.03;;;11.38;50.36
73105;BME280;61296;50.526;30.792;2022-10-17T08:58:40;101094.97;;;10.89;49.77
73105;BME280;61296;50.526;30.792;2022-10-17T09:29:37;101097.66;;;11.80;47.71
73105;BME280;61296;50.526;30.792;2022-10-17T09:45:18;101212.84;;;12.88;46.03
73105;BME280;61296;50.526;30.792;2022-10-17T10:00:44;101081.16;;;12.48;45.42
73105;BME280;61296;50.526;30.792;2022-10-17T10:16:31;101184.38;;;13.55;44.32
73105;BME280;61296;50.526;30.792;2022-10-17T10:31:51;101170.34;;;13.48;42.96
73105;BME280;61296;50.526;30.792;2022-10-17T10:47:25;101117.13;;;13.36;42.30
73105;BME280;61296;50.526;30.792;2022-10-17T11:03:09;101139.13;;;13.95;40.29
73105;BME280;61296;50.526;30.792;2022-10-17T11:18:44;101116.47;;;14.25;40.27
73105;BME280;61296;50.526;30.792;2022-10-17T11:34:13;101107.91;;;14.30;40.22
73105;BME280;61296;50.526;30.792;2022-10-17T11:49:41;101076.97;;;14.43;39.24
73105;BME280;61296;50.526;30.792;2022-10-17T12:20:38;101028.75;;;14.44;37.78
73105;BME280;61296;50.526;30.792;2022-10-17T13:07:50;101021.41;;;14.94;37.25
73105;BME280;61296;50.526;30.792;2022-10-17T13:23:23;100986.75;;;14.81;37.05
73105;BME280;61296;50.526;30.792;2022-10-17T13:38:43;100985.25;;;14.87;37.83
73105;BME280;61296;50.526;30.792;2022-10-17T13:54:16;100962.66;;;14.85;37.89
73105;BME280;61296;50.526;30.792;2022-10-17T14:09:35;101083.78;;;15.53;38.32
73105;BME280;61296;50.526;30.792;2022-10-17T14:24:55;100998.44;;;14.94;38.19
73105;BME280;61296;50.526;30.792;2022-10-17T14:40:20;100997.19;;;14.68;39.25
73105;BME280;61296;50.526;30.792;2022-10-17T14:55:54;100997.94;;;14.46;39.83
73105;BME280;61296;50.526;30.792;2022-10-17T15:11:15;101049.16;;;14.56;40.69
73105;BME280;61296;50.526;30.792;2022-10-17T15:26:35;101032.75;;;14.08;41.80
73105;BME280;61296;50.526;30.792;2022-10-17T15:41:54;101031.50;;;13.71;42.62
73105;BME280;61296;50.526;30.792;2022-10-17T15:57:20;101098.97;;;13.85;43.26
73105;BME280;61296;50.526;30.792;2022-10-17T16:12:40;100989.91;;;12.85;45.22
73105;BME280;61296;50.526;30.792;2022-10-17T16:28:00;101070.03;;;13.32;45.65
73105;BME280;61296;50.526;30.792;2022-10-17T16:43:19;101007.25;;;12.69;46.17
73105;BME280;61296;50.526;30.792;2022-10-17T16:58:40;101002.66;;;12.18;47.10
73105;BME280;61296;50.526;30.792;2022-10-17T17:13:59;101061.66;;;12.41;47.79
73105;BME280;61296;50.526;30.792;2022-10-17T17:29:23;100956.28;;;11.67;47.87
73105;BME280;61296;50.526;30.792;2022-10-17T17:44:42;101010.34;;;11.84;48.40
73105;BME280;61296;50.526;30.792;2022-10-17T18:00:02;100983.63;;;11.48;48.39
73105;BME280;61296;50.526;30.792;2022-10-17T18:15:23;101005.53;;;11.56;48.88
73105;BME280;61296;50.526;30.792;2022-10-17T18:30:42;101022.41;;;11.55;49.70
73105;BME280;61296;50.526;30.792;2022-10-17T18:46:13;100953.25;;;10.95;50.05
73105;BME280;61296;50.526;30.792;2022-10-17T19:01:33;100943.56;;;10.65;50.42
73105;BME280;61296;50.526;30.792;2022-10-17T19:16:52;101000.50;;;11.10;50.43
73105;BME280;61296;50.526;30.792;2022-10-17T19:32:12;101021.38;;;11.11;50.67
73105;BME280;61296;50.526;30.792;2022-10-17T19:47:32;100971.53;;;10.67;51.07
73105;BME280;61296;50.526;30.792;2022-10-17T20:02:51;100994.59;;;10.75;51.25
73105;BME280;61296;50.526;30.792;2022-10-17T20:18:11;101030.75;;;10.85;51.69
73105;BME280;61296;50.526;30.792;2022-10-17T20:33:30;100998.97;;;10.76;51.64
73105;BME280;61296;50.526;30.792;2022-10-17T20:48:51;100945.78;;;10.38;51.93
73105;BME280;61296;50.526;30.792;2022-10-17T21:04:11;100939.59;;;10.41;51.93
73105;BME280;61296;50.526;30.792;2022-10-17T21:19:30;101013.28;;;10.81;52.17
73105;BME280;61296;50.526;30.792;2022-10-17T21:34:50;101070.94;;;11.11;52.46
73105;BME280;61296;50.526;30.792;2022-10-17T21:50:09;100923.78;;;10.05;53.33
73105;BME280;61296;50.526;30.792;2022-10-17T22:05:29;100955.06;;;10.13;53.91
73105;BME280;61296;50.526;30.792;2022-10-17T22:20:49;100973.03;;;10.10;54.67
73105;BME280;61296;50.526;30.792;2022-10-17T22:36:08;101045.06;;;10.46;55.02
73105;BME280;61296;50.526;30.792;2022-10-17T22:51:31;100983.09;;;10.06;55.43
73105;BME280;61296;50.526;30.792;2022-10-17T23:06:50;100966.28;;;9.87;55.63
73105;BME280;61296;50.526;30.792;2022-10-17T23:22:10;100968.38;;;9.90;55.57
73105;BME280;61296;50.526;30.792;2022-10-17T23:37:29;100981.91;;;9.74;56.31
73105;BME280;61296;50.526;30.792;2022-10-17T23:52:49;100898.97;;;9.39;56.50
